createdAt,value
2022-07-25T00:00:57.589Z,18.30
2022-07-25T00:03:29.518Z,17.96
2022-07-25T00:05:59.637Z,17.86
2022-07-25T00:08:28.142Z,17.84
2022-07-25T00:10:56.678Z,17.85
2022-07-25T00:13:25.178Z,17.82
2022-07-25T00:15:53.875Z,17.77
2022-07-25T00:18:22.734Z,17.66
2022-07-25T00:20:51.376Z,17.63
2022-07-25T00:23:21.363Z,17.62
2022-07-25T00:25:50.270Z,17.48
2022-07-25T00:28:18.840Z,17.62
2022-07-25T00:30:48.048Z,17.54
2022-07-25T00:33:16.696Z,17.70
2022-07-25T00:35:45.420Z,17.71
2022-07-25T00:38:15.441Z,17.60
2022-07-25T00:40:45.774Z,17.56
2022-07-25T00:43:22.804Z,17.43
2022-07-25T00:45:51.384Z,17.51
2022-07-25T00:48:19.867Z,17.55
2022-07-25T00:50:48.335Z,17.54
2022-07-25T00:53:17.210Z,17.43
2022-07-25T00:55:48.166Z,17.12
2022-07-25T00:58:16.807Z,17.11
2022-07-25T01:00:45.343Z,16.98
2022-07-25T01:03:14.034Z,16.99
2022-07-25T01:05:42.820Z,17.03
2022-07-25T01:08:11.984Z,17.04
2022-07-25T01:10:40.784Z,17.05
2022-07-25T01:13:10.734Z,17.15
2022-07-25T01:15:39.454Z,17.24
2022-07-25T01:18:08.010Z,17.29
2022-07-25T01:20:38.207Z,17.38
2022-07-25T01:23:06.795Z,17.28
2022-07-25T01:25:35.266Z,17.20
2022-07-25T01:28:05.196Z,17.00
2022-07-25T01:30:33.790Z,16.87
2022-07-25T01:33:06.708Z,16.71
2022-07-25T01:35:43.057Z,16.65
2022-07-25T01:38:11.986Z,16.76
2022-07-25T01:40:41.009Z,16.88
2022-07-25T01:43:09.815Z,16.88
2022-07-25T01:45:38.635Z,16.85
2022-07-25T01:48:07.540Z,16.99
2022-07-25T01:50:37.500Z,17.07
2022-07-25T01:53:06.329Z,17.09
2022-07-25T01:55:34.938Z,17.13
2022-07-25T01:58:03.444Z,17.13
2022-07-25T02:00:31.985Z,17.16
2022-07-25T02:03:17.781Z,17.27
2022-07-25T02:05:47.639Z,17.27
2022-07-25T02:08:16.150Z,17.36
2022-07-25T02:10:45.955Z,17.45
2022-07-25T02:13:14.400Z,17.38
2022-07-25T02:15:43.007Z,17.44
2022-07-25T02:18:11.803Z,17.46
2022-07-25T02:20:40.594Z,17.45
2022-07-25T02:23:10.987Z,17.41
2022-07-25T02:25:39.602Z,17.38
2022-07-25T02:28:08.080Z,17.28
2022-07-25T02:30:39.587Z,17.12
2022-07-25T02:33:08.082Z,17.08
2022-07-25T02:35:36.602Z,17.03
2022-07-25T02:38:05.221Z,16.97
2022-07-25T02:40:35.140Z,16.88
2022-07-25T02:43:03.725Z,16.82
2022-07-25T02:45:32.249Z,16.76
2022-07-25T02:48:02.787Z,16.60
2022-07-25T02:50:31.349Z,16.71
2022-07-25T02:53:00.117Z,16.64
2022-07-25T02:55:28.602Z,16.48
2022-07-25T02:57:58.516Z,16.44
2022-07-25T03:00:27.688Z,16.33
2022-07-25T03:02:56.415Z,16.33
2022-07-25T03:05:25.149Z,16.27
2022-07-25T03:07:54.696Z,16.33
2022-07-25T03:10:23.729Z,16.43
2022-07-25T03:12:52.472Z,16.45
2022-07-25T03:15:22.430Z,16.51
2022-07-25T03:17:50.923Z,16.54
2022-07-25T03:20:19.757Z,16.56
2022-07-25T03:22:49.110Z,16.57
2022-07-25T03:25:21.706Z,16.55
2022-07-25T03:27:51.236Z,16.42
2022-07-25T03:30:19.722Z,16.26
2022-07-25T03:32:50.002Z,16.12
2022-07-25T03:35:18.602Z,15.85
2022-07-25T03:37:47.109Z,16.05
2022-07-25T03:40:16.109Z,16.02
2022-07-25T03:42:45.275Z,15.86
2022-07-25T03:45:13.803Z,15.88
2022-07-25T03:47:42.279Z,15.89
2022-07-25T03:50:12.510Z,15.91
2022-07-25T03:52:41.000Z,15.84
2022-07-25T03:55:11.353Z,15.87
2022-07-25T03:57:40.234Z,15.95
2022-07-25T04:00:12.376Z,15.96
2022-07-25T04:05:50.723Z,15.94
2022-07-25T04:08:19.186Z,15.94
2022-07-25T04:10:47.646Z,15.99
2022-07-25T04:13:16.322Z,16.10
2022-07-25T04:15:44.843Z,16.00
2022-07-25T04:18:15.722Z,16.10
2022-07-25T04:20:51.034Z,16.10
2022-07-25T04:23:19.800Z,15.99
2022-07-25T04:25:48.273Z,15.90
2022-07-25T04:28:16.969Z,15.79
2022-07-25T04:30:45.566Z,15.81
2022-07-25T04:33:14.334Z,15.80
2022-07-25T04:35:42.869Z,15.65
2022-07-25T04:38:12.729Z,15.68
2022-07-25T04:40:41.627Z,15.61
2022-07-25T04:43:10.432Z,15.53
2022-07-25T04:45:39.099Z,15.69
2022-07-25T04:48:07.996Z,15.75
2022-07-25T04:50:36.996Z,15.71
2022-07-25T04:53:06.059Z,15.71
2022-07-25T04:55:36.647Z,15.59
2022-07-25T04:58:05.369Z,15.61
2022-07-25T05:00:34.543Z,15.56
2022-07-25T05:03:03.094Z,15.52
2022-07-25T05:05:31.565Z,15.15
2022-07-25T05:08:00.935Z,15.27
2022-07-25T05:10:30.839Z,16.69
2022-07-25T05:13:00.708Z,16.94
2022-07-25T05:15:29.230Z,17.32
2022-07-25T05:17:57.834Z,17.31
2022-07-25T05:20:26.526Z,17.48
2022-07-25T05:22:55.025Z,18.04
2022-07-25T05:25:24.027Z,18.09
2022-07-25T05:27:54.720Z,18.52
2022-07-25T05:30:24.657Z,18.76
2022-07-25T05:32:53.134Z,18.65
2022-07-25T05:35:21.757Z,18.48
2022-07-25T05:37:50.250Z,18.50
2022-07-25T05:40:19.517Z,18.75
2022-07-25T05:42:48.361Z,19.19
2022-07-25T05:45:16.876Z,19.35
2022-07-25T05:47:46.735Z,19.57
2022-07-25T05:50:16.260Z,19.78
2022-07-25T05:52:44.767Z,19.38
2022-07-25T05:55:13.762Z,19.23
2022-07-25T05:57:42.224Z,18.95
2022-07-25T06:00:12.008Z,18.49
2022-07-25T06:02:40.765Z,18.26
2022-07-25T06:05:11.289Z,18.32
2022-07-25T06:07:40.029Z,19.07
2022-07-25T06:10:09.518Z,20.15
2022-07-25T06:12:38.628Z,21.57
2022-07-25T06:15:17.696Z,22.74
2022-07-25T06:17:50.879Z,24.18
2022-07-25T06:20:21.011Z,25.35
2022-07-25T06:22:49.523Z,25.84
2022-07-25T06:25:17.993Z,26.86
2022-07-25T06:27:46.818Z,28.16
2022-07-25T06:30:20.227Z,29.33
2022-07-25T06:32:49.343Z,29.47
2022-07-25T06:35:18.025Z,29.28
2022-07-25T06:37:48.247Z,29.49
2022-07-25T06:40:17.128Z,29.87
2022-07-25T06:42:48.055Z,30.00
2022-07-25T06:45:17.915Z,30.70
2022-07-25T06:47:46.580Z,31.35
2022-07-25T06:50:18.688Z,32.23
2022-07-25T06:52:51.221Z,32.08
2022-07-25T06:55:19.911Z,31.84
2022-07-25T06:57:48.415Z,31.49
2022-07-25T07:00:17.276Z,32.37
2022-07-25T07:02:53.718Z,33.27
2022-07-25T07:05:22.642Z,33.84
2022-07-25T07:07:53.408Z,33.89
2022-07-25T07:10:23.301Z,32.99
2022-07-25T07:12:53.038Z,33.33
2022-07-25T07:15:22.859Z,32.91
2022-07-25T07:17:51.905Z,32.80
2022-07-25T07:20:20.342Z,32.10
2022-07-25T07:22:50.220Z,33.16
2022-07-25T07:25:21.498Z,33.17
2022-07-25T07:27:51.704Z,34.55
2022-07-25T07:30:24.778Z,36.23
2022-07-25T07:32:58.520Z,37.03
2022-07-25T07:35:27.303Z,36.22
2022-07-25T07:37:56.675Z,36.33
2022-07-25T07:40:27.059Z,35.72
2022-07-25T07:42:57.189Z,36.85
2022-07-25T07:45:26.483Z,36.03
2022-07-25T07:47:56.086Z,37.48
2022-07-25T07:50:27.623Z,37.04
2022-07-25T07:52:58.510Z,36.40
2022-07-25T07:55:48.963Z,36.20
2022-07-25T07:58:19.592Z,36.28
2022-07-25T08:00:51.727Z,37.52
2022-07-25T08:03:21.914Z,38.90
2022-07-25T08:05:51.987Z,37.11
2022-07-25T08:08:20.801Z,37.58
2022-07-25T08:10:52.693Z,37.74
2022-07-25T08:13:26.483Z,37.60
2022-07-25T08:15:59.536Z,37.18
2022-07-25T08:18:30.135Z,38.76
2022-07-25T08:20:58.783Z,40.07
2022-07-25T08:23:28.908Z,40.56
2022-07-25T08:25:59.002Z,39.76
2022-07-25T08:28:27.766Z,38.65
2022-07-25T08:30:56.430Z,39.04
2022-07-25T08:33:25.171Z,40.69
2022-07-25T08:35:55.791Z,41.01
2022-07-25T08:38:26.424Z,39.67
2022-07-25T08:40:56.467Z,39.33
2022-07-25T08:43:26.454Z,40.48
2022-07-25T08:45:56.139Z,40.61
2022-07-25T08:48:26.961Z,39.82
2022-07-25T08:50:57.355Z,40.97
2022-07-25T08:53:35.322Z,39.27
2022-07-25T08:56:12.239Z,40.11
2022-07-25T08:58:44.401Z,40.37
2022-07-25T09:01:13.908Z,40.49
2022-07-25T09:03:43.951Z,42.33
2022-07-25T09:06:18.122Z,42.98
2022-07-25T09:08:53.808Z,43.94
2022-07-25T09:11:30.321Z,44.74
2022-07-25T09:14:06.874Z,45.38
2022-07-25T09:16:40.119Z,45.63
2022-07-25T09:19:11.666Z,45.65
2022-07-25T09:21:41.241Z,45.62
2022-07-25T09:24:16.149Z,46.05
2022-07-25T09:26:46.899Z,46.15
2022-07-25T09:29:23.455Z,46.22
2022-07-25T09:31:52.676Z,46.22
2022-07-25T09:34:38.490Z,46.48
2022-07-25T09:37:08.501Z,46.00
2022-07-25T09:39:45.437Z,46.15
2022-07-25T09:42:20.026Z,46.22
2022-07-25T09:45:04.923Z,46.80
2022-07-25T09:47:35.311Z,47.45
2022-07-25T09:50:04.464Z,46.70
2022-07-25T09:52:33.936Z,47.25
2022-07-25T09:55:04.702Z,46.80
2022-07-25T09:57:33.346Z,48.30
2022-07-25T10:00:03.549Z,46.67
2022-07-25T10:02:49.897Z,47.04
2022-07-25T10:05:30.126Z,48.19
2022-07-25T10:07:59.589Z,47.99
2022-07-25T10:10:30.423Z,47.96
2022-07-25T10:13:11.206Z,48.14
2022-07-25T10:15:50.070Z,48.95
2022-07-25T10:18:20.202Z,49.11
2022-07-25T10:20:50.583Z,48.38
2022-07-25T10:23:24.328Z,49.48
2022-07-25T10:26:09.656Z,48.14
2022-07-25T10:28:40.543Z,45.08
2022-07-25T10:31:27.914Z,45.00
2022-07-25T10:33:58.591Z,45.31
2022-07-25T10:36:33.728Z,44.06
2022-07-25T10:39:03.025Z,44.29
2022-07-25T10:41:31.628Z,43.39
2022-07-25T10:44:04.221Z,43.71
2022-07-25T10:46:36.435Z,43.44
2022-07-25T10:49:07.050Z,43.65
2022-07-25T10:51:41.544Z,42.85
2022-07-25T10:54:15.577Z,41.99
2022-07-25T10:56:56.472Z,43.09
2022-07-25T10:59:30.889Z,43.52
2022-07-25T11:02:01.684Z,45.23
2022-07-25T11:04:31.544Z,46.28
2022-07-25T11:07:09.832Z,45.82
2022-07-25T11:09:39.182Z,46.79
2022-07-25T11:12:08.226Z,47.54
2022-07-25T11:14:39.944Z,45.30
2022-07-25T11:17:15.855Z,44.69
2022-07-25T11:19:47.188Z,46.10
2022-07-25T11:22:17.653Z,47.11
2022-07-25T11:24:47.839Z,47.63
2022-07-25T11:27:22.091Z,47.92
2022-07-25T11:29:50.422Z,47.22
2022-07-25T11:32:21.193Z,42.33
2022-07-25T11:34:51.151Z,44.27
2022-07-25T11:37:20.638Z,44.58
2022-07-25T11:39:49.699Z,45.41
2022-07-25T11:42:20.001Z,44.20
2022-07-25T11:44:50.095Z,43.84
2022-07-25T11:47:28.221Z,42.10
2022-07-25T11:49:59.204Z,40.37
2022-07-25T11:52:30.257Z,39.60
2022-07-25T11:55:01.815Z,38.30
2022-07-25T11:57:31.998Z,36.33
2022-07-25T12:00:02.687Z,35.80
2022-07-25T12:02:39.197Z,35.14
2022-07-25T12:05:10.444Z,34.88
2022-07-25T12:07:40.723Z,34.50
2022-07-25T12:10:12.369Z,34.46
2022-07-25T12:12:45.789Z,34.35
2022-07-25T12:15:15.201Z,34.33
2022-07-25T12:17:45.158Z,33.53
2022-07-25T12:20:17.316Z,33.57
2022-07-25T12:22:46.689Z,33.45
2022-07-25T12:25:15.208Z,33.30
2022-07-25T12:27:44.210Z,32.92
2022-07-25T12:30:13.698Z,32.15
2022-07-25T12:32:44.824Z,32.91
2022-07-25T12:35:15.623Z,33.00
2022-07-25T12:37:45.039Z,32.97
2022-07-25T12:40:15.537Z,33.32
2022-07-25T12:42:44.978Z,33.45
2022-07-25T12:45:14.915Z,33.43
2022-07-25T12:47:45.999Z,33.78
2022-07-25T12:50:15.793Z,33.63
2022-07-25T12:52:44.973Z,32.76
2022-07-25T12:55:15.763Z,32.97
2022-07-25T12:57:44.279Z,33.21
2022-07-25T13:00:15.095Z,33.60
2022-07-25T13:02:45.094Z,33.74
2022-07-25T13:05:13.638Z,33.81
2022-07-25T13:07:42.160Z,34.22
2022-07-25T13:10:11.138Z,34.09
2022-07-25T13:12:39.937Z,34.24
2022-07-25T13:15:09.401Z,34.36
2022-07-25T13:17:37.932Z,34.48
2022-07-25T13:20:09.433Z,34.45
2022-07-25T13:22:38.202Z,34.54
2022-07-25T13:25:07.547Z,34.35
2022-07-25T13:27:36.066Z,34.15
2022-07-25T13:30:04.840Z,34.37
2022-07-25T13:32:34.421Z,34.26
2022-07-25T13:35:03.154Z,34.40
2022-07-25T13:37:33.673Z,34.59
2022-07-25T13:40:02.213Z,34.55
2022-07-25T13:42:30.714Z,34.41
2022-07-25T13:44:59.451Z,34.36
2022-07-25T13:47:30.376Z,34.23
2022-07-25T13:49:59.142Z,33.87
2022-07-25T13:52:27.586Z,34.10
2022-07-25T13:54:57.408Z,34.20
2022-07-25T13:57:25.985Z,34.13
2022-07-25T13:59:54.768Z,34.16
2022-07-25T14:02:23.326Z,34.00
2022-07-25T14:04:51.854Z,33.75
2022-07-25T14:07:20.316Z,33.63
2022-07-25T14:09:48.815Z,33.62
2022-07-25T14:12:18.863Z,33.39
2022-07-25T14:14:47.709Z,33.42
2022-07-25T14:17:16.430Z,33.45
2022-07-25T14:19:44.966Z,33.38
2022-07-25T14:22:13.441Z,33.24
2022-07-25T14:24:41.951Z,33.36
2022-07-25T14:27:10.708Z,33.38
2022-07-25T14:29:40.801Z,33.32
2022-07-25T14:32:09.378Z,33.36
2022-07-25T14:34:40.553Z,33.57
2022-07-25T14:37:09.789Z,33.47
2022-07-25T14:39:38.647Z,33.33
2022-07-25T14:42:11.370Z,33.57
2022-07-25T14:44:41.714Z,32.57
2022-07-25T14:47:12.529Z,31.93
2022-07-25T14:49:41.879Z,31.71
2022-07-25T14:52:11.537Z,31.56
2022-07-25T14:54:40.755Z,31.29
2022-07-25T14:57:09.881Z,31.06
2022-07-25T14:59:38.487Z,31.04
2022-07-25T15:02:09.085Z,31.06
2022-07-25T15:04:37.598Z,31.05
2022-07-25T15:07:07.568Z,31.08
2022-07-25T15:09:36.054Z,31.15
2022-07-25T15:12:05.107Z,30.94
2022-07-25T15:14:33.936Z,30.84
2022-07-25T15:17:02.700Z,30.95
2022-07-25T15:19:32.841Z,30.82
2022-07-25T15:22:01.356Z,30.59
2022-07-25T15:24:29.876Z,30.51
2022-07-25T15:26:58.730Z,30.78
2022-07-25T15:29:28.356Z,30.68
2022-07-25T15:31:57.320Z,30.50
2022-07-25T15:34:25.870Z,30.43
2022-07-25T15:36:56.968Z,30.49
2022-07-25T15:39:25.787Z,30.65
2022-07-25T15:41:55.240Z,30.54
2022-07-25T15:44:25.646Z,30.44
2022-07-25T15:46:54.187Z,30.39
2022-07-25T15:49:22.966Z,30.56
2022-07-25T15:51:52.171Z,30.55
2022-07-25T15:54:25.073Z,30.58
2022-07-25T15:56:56.419Z,30.48
2022-07-25T15:59:25.124Z,30.34
2022-07-25T16:01:53.626Z,30.11
2022-07-25T16:04:22.229Z,30.23
2022-07-25T16:06:50.793Z,30.26
2022-07-25T16:09:21.111Z,30.19
2022-07-25T16:11:51.194Z,30.07
2022-07-25T16:14:19.729Z,29.79
2022-07-25T16:16:48.305Z,29.77
2022-07-25T16:19:16.933Z,29.55
2022-07-25T16:21:45.414Z,29.51
2022-07-25T16:24:13.978Z,29.49
2022-07-25T16:26:42.533Z,29.43
2022-07-25T16:29:12.890Z,29.66
2022-07-25T16:31:42.110Z,29.64
2022-07-25T16:34:11.328Z,29.72
2022-07-25T16:36:39.825Z,29.62
2022-07-25T16:39:08.971Z,29.52
2022-07-25T16:41:38.024Z,29.59
2022-07-25T16:44:06.848Z,29.56
2022-07-25T16:46:37.184Z,29.43
2022-07-25T16:49:06.058Z,29.48
2022-07-25T16:51:37.103Z,29.41
2022-07-25T16:54:06.393Z,29.50
2022-07-25T16:56:36.561Z,29.50
2022-07-25T16:59:05.480Z,29.47
2022-07-25T17:01:35.208Z,29.58
2022-07-25T17:04:05.994Z,29.66
2022-07-25T17:06:34.688Z,29.84
2022-07-25T17:09:03.155Z,29.87
2022-07-25T17:11:31.732Z,29.86
2022-07-25T17:14:00.758Z,30.04
2022-07-25T17:16:29.324Z,30.15
2022-07-25T17:18:57.956Z,30.00
2022-07-25T17:21:27.943Z,30.04
2022-07-25T17:23:56.671Z,30.05
2022-07-25T17:26:25.265Z,30.02
2022-07-25T17:28:54.203Z,29.86
2022-07-25T17:31:24.397Z,30.16
2022-07-25T17:33:52.942Z,30.27
2022-07-25T17:36:21.542Z,30.21
2022-07-25T17:38:51.603Z,30.11
2022-07-25T17:41:20.139Z,30.12
2022-07-25T17:43:49.318Z,30.11
2022-07-25T17:46:17.899Z,30.10
2022-07-25T17:48:46.775Z,29.95
2022-07-25T17:51:15.489Z,30.07
2022-07-25T17:53:44.009Z,30.01
2022-07-25T17:56:13.949Z,30.05
2022-07-25T17:58:42.631Z,29.89
2022-07-25T18:01:11.374Z,29.91
2022-07-25T18:03:39.985Z,29.95
2022-07-25T18:06:09.169Z,29.89
2022-07-25T18:08:38.249Z,29.65
2022-07-25T18:11:06.982Z,29.80
2022-07-25T18:13:36.931Z,29.80
2022-07-25T18:16:05.784Z,29.40
2022-07-25T18:18:34.290Z,29.49
2022-07-25T18:21:03.214Z,29.66
2022-07-25T18:23:31.686Z,29.63
2022-07-25T18:26:00.235Z,29.54
2022-07-25T18:28:28.909Z,29.43
2022-07-25T18:30:58.865Z,29.18
2022-07-25T18:33:27.403Z,29.25
2022-07-25T18:35:56.580Z,29.29
2022-07-25T18:38:25.039Z,28.91
2022-07-25T18:41:12.297Z,29.07
2022-07-25T18:43:42.132Z,28.98
2022-07-25T18:46:15.442Z,28.94
2022-07-25T18:48:45.815Z,29.04
2022-07-25T18:51:14.370Z,28.83
2022-07-25T18:53:47.319Z,28.59
2022-07-25T18:56:17.322Z,28.30
2022-07-25T18:58:46.206Z,27.89
2022-07-25T19:01:16.194Z,27.99
2022-07-25T19:03:44.863Z,27.88
2022-07-25T19:06:13.455Z,27.93
2022-07-25T19:08:43.795Z,27.98
2022-07-25T19:11:12.374Z,27.95
2022-07-25T19:13:50.940Z,27.93
2022-07-25T19:16:21.412Z,27.71
2022-07-25T19:18:49.984Z,27.56
2022-07-25T19:21:18.451Z,27.50
2022-07-25T19:23:50.761Z,27.33
2022-07-25T19:26:20.379Z,27.25
2022-07-25T19:28:49.076Z,27.34
2022-07-25T19:31:18.174Z,27.17
2022-07-25T19:33:48.155Z,26.69
2022-07-25T19:36:16.667Z,26.95
2022-07-25T19:38:45.148Z,26.90
2022-07-25T19:41:14.698Z,26.92
2022-07-25T19:43:43.746Z,27.00
2022-07-25T19:46:12.373Z,27.00
2022-07-25T19:48:41.344Z,26.67
2022-07-25T19:51:11.450Z,26.68
2022-07-25T19:53:40.137Z,26.47
2022-07-25T19:56:09.331Z,26.45
2022-07-25T19:58:39.057Z,26.39
2022-07-25T20:01:09.556Z,26.41
2022-07-25T20:03:38.246Z,26.35
2022-07-25T20:06:08.448Z,26.32
2022-07-25T20:08:40.571Z,26.25
2022-07-25T20:11:09.492Z,25.90
2022-07-25T20:13:37.972Z,26.16
2022-07-25T20:16:07.217Z,25.52
2022-07-25T20:18:35.874Z,25.81
2022-07-25T20:21:04.572Z,25.75
2022-07-25T20:23:33.455Z,25.70
2022-07-25T20:26:04.379Z,25.67
2022-07-25T20:28:33.453Z,25.86
2022-07-25T20:31:02.560Z,25.80
2022-07-25T20:33:31.387Z,25.68
2022-07-25T20:36:00.663Z,25.59
2022-07-25T20:38:31.199Z,25.77
2022-07-25T20:41:00.361Z,25.70
2022-07-25T20:43:30.316Z,25.70
2022-07-25T20:45:59.252Z,25.46
2022-07-25T20:48:27.879Z,25.56
2022-07-25T20:50:56.832Z,25.39
2022-07-25T20:53:25.399Z,25.53
2022-07-25T20:55:54.281Z,25.27
2022-07-25T20:58:22.823Z,25.56
2022-07-25T21:00:52.756Z,25.43
2022-07-25T21:03:21.485Z,25.32
2022-07-25T21:05:50.377Z,25.24
2022-07-25T21:08:18.951Z,25.16
2022-07-25T21:10:47.632Z,25.11
2022-07-25T21:13:18.486Z,25.04
2022-07-25T21:15:47.258Z,24.94
2022-07-25T21:18:17.239Z,24.92
2022-07-25T21:20:47.409Z,24.91
2022-07-25T21:23:16.081Z,24.93
2022-07-25T21:25:44.821Z,24.83
2022-07-25T21:28:13.951Z,24.94
2022-07-25T21:30:43.317Z,24.68
2022-07-25T21:33:14.794Z,24.76
2022-07-25T21:35:52.027Z,24.77
2022-07-25T21:38:26.007Z,24.48
2022-07-25T21:40:57.245Z,24.47
2022-07-25T21:43:26.222Z,24.14
2022-07-25T21:45:55.238Z,24.13
2022-07-25T21:48:44.171Z,23.57
2022-07-25T21:51:22.915Z,23.07
2022-07-25T21:53:52.345Z,23.05
2022-07-25T21:56:21.575Z,23.35
2022-07-25T21:58:50.213Z,23.45
2022-07-25T22:01:21.141Z,23.04
2022-07-25T22:03:49.858Z,23.12
2022-07-25T22:06:20.274Z,22.91
2022-07-25T22:08:48.835Z,23.36
2022-07-25T22:11:38.518Z,22.48
2022-07-25T22:14:06.791Z,22.96
2022-07-25T22:16:35.558Z,22.73
2022-07-25T22:19:04.773Z,22.37
2022-07-25T22:21:35.293Z,22.71
2022-07-25T22:24:03.855Z,22.25
2022-07-25T22:26:32.395Z,23.08
2022-07-25T22:29:01.194Z,22.76
2022-07-25T22:31:30.116Z,23.11
2022-07-25T22:33:58.726Z,22.76
2022-07-25T22:36:27.320Z,22.38
2022-07-25T22:38:57.306Z,22.75
2022-07-25T22:41:25.879Z,22.89
2022-07-25T22:43:58.394Z,22.63
2022-07-25T22:46:28.693Z,22.68
2022-07-25T22:48:57.965Z,22.07
2022-07-25T22:51:27.530Z,22.80
2022-07-25T22:53:58.003Z,22.26
2022-07-25T22:56:27.148Z,22.91
2022-07-25T22:58:55.728Z,22.87
2022-07-25T23:01:24.865Z,22.84
2022-07-25T23:03:53.714Z,22.79
2022-07-25T23:06:22.927Z,22.71
2022-07-25T23:08:51.761Z,22.76
2022-07-25T23:11:21.623Z,22.76
2022-07-25T23:13:50.219Z,22.83
2022-07-25T23:16:19.389Z,22.74
2022-07-25T23:18:47.891Z,22.75
2022-07-25T23:21:16.368Z,22.70
2022-07-25T23:23:44.848Z,22.48
2022-07-25T23:26:13.419Z,22.71
2022-07-25T23:28:43.276Z,22.72
2022-07-25T23:31:12.035Z,22.61
2022-07-25T23:33:40.562Z,22.68
2022-07-25T23:36:09.469Z,22.47
2022-07-25T23:38:38.076Z,22.44
2022-07-25T23:41:06.834Z,22.17
2022-07-25T23:43:56.401Z,22.12
2022-07-25T23:46:29.282Z,22.12
2022-07-25T23:49:00.334Z,21.87
2022-07-25T23:51:29.410Z,22.08
2022-07-25T23:53:58.124Z,22.01
2022-07-25T23:56:26.781Z,21.97
2022-07-25T23:58:55.303Z,21.89
